Ubc Santos — 5BCS2 — position and weather

sailwx.info

Track history (hours):
 
Tides and Currents Weather Stations Pressure Air Temp Water Temp Dewpoint Dewpoint Depression Visibility Wind Speed Wind Dir Waves Ship Positions

Ubc Santos

Last reported at 2018-Feb-15 02:11 UTC. Time now 2018-Feb-20 21:39 UTC.
Position N 09°11' W 079°52'.

Length 165 m; draft 10.6 m.

Type: Cargo ship. MMSI: 212125000.

Date/timePositionNaut miles runAvg speedWind from/ knotsBaromVisibWave heightAir tempDewpointWater temp
2018-Feb-15 02:11N 09°11' W 079°52'211.7
2018-Feb-15 02:00N 09°12' W 079°54'4 8.5
2018-Feb-15 01:30N 09°16' W 079°55'1 1.1
2018-Feb-15 01:00N 09°16' W 079°55'0 0.4
2018-Feb-15 00:30N 09°17' W 079°55'0 0.4
2018-Feb-15 00:00N 09°17' W 079°55'1 1.2
2018-Feb-14 23:30N 09°17' W 079°55'3 5.6
2018-Feb-14 23:00N 09°20' W 079°55'3 4.7
2018-Feb-14 22:28N 09°23' W 079°56'0 0.1
2018-Feb-14 21:58N 09°23' W 079°56'0 0.0
2018-Feb-14 21:28N 09°23' W 079°56'0 0.0
2018-Feb-14 20:58N 09°23' W 079°56'0 0.0
2018-Feb-14 20:25N 09°23' W 079°56'0 0.0
2018-Feb-14 19:58N 09°23' W 079°56'0 0.0
2018-Feb-14 19:28N 09°23' W 079°56'0 0.0
2018-Feb-14 18:58N 09°23' W 079°56'0 0.0
2018-Feb-14 18:28N 09°23' W 079°56'0 0.0
2018-Feb-14 17:58N 09°23' W 079°56'0 0.0
2018-Feb-14 17:28N 09°23' W 079°56'0 0.0
2018-Feb-14 16:58N 09°23' W 079°56'0 0.0
2018-Feb-14 16:28N 09°23' W 079°56'0 0.0
2018-Feb-14 15:58N 09°23' W 079°56'0 0.0
2018-Feb-14 15:28N 09°23' W 079°56'0 0.0
2018-Feb-14 14:58N 09°23' W 079°56'0 0.0
2018-Feb-14 14:28N 09°23' W 079°56'0 0.0
2018-Feb-14 13:58N 09°23' W 079°56'0 0.0
2018-Feb-14 13:28N 09°23' W 079°56'0 0.0
2018-Feb-14 12:58N 09°23' W 079°56'0 0.4
2018-Feb-14 12:28N 09°23' W 079°56'0 0.8
2018-Feb-14 12:00N 09°22' W 079°56'2 4.0
2018-Feb-14 11:30N 09°24' W 079°55'3 5.4
2018-Feb-14 11:00N 09°26' W 079°57'0 0.3
2018-Feb-14 10:26N 09°26' W 079°58'0 0.0
2018-Feb-14 09:59N 09°26' W 079°58'0 0.0
2018-Feb-14 09:29N 09°26' W 079°58'0 0.0
2018-Feb-14 08:56N 09°26' W 079°58'0 0.0
2018-Feb-14 08:26N 09°26' W 079°58'0 0.0
2018-Feb-14 07:56N 09°26' W 079°58'0 0.0
2018-Feb-14 07:29N 09°26' W 079°58'0 0.0
2018-Feb-14 06:59N 09°26' W 079°58'0 0.0
2018-Feb-14 06:29N 09°26' W 079°58'0 0.0
2018-Feb-14 05:59N 09°26' W 079°58'0 0.0
2018-Feb-14 05:26N 09°26' W 079°58'0 0.0
2018-Feb-14 04:56N 09°26' W 079°58'0 0.0
2018-Feb-14 04:29N 09°26' W 079°58'0 0.0
2018-Feb-14 03:59N 09°26' W 079°58'0 0.0
2018-Feb-14 03:29N 09°26' W 079°58'0 0.0
2018-Feb-14 02:59N 09°26' W 079°58'0 0.0
2018-Feb-14 02:26N 09°26' W 079°58'0 0.0
2018-Feb-14 01:59N 09°26' W 079°58'0 0.0
2018-Feb-14 01:20N 09°26' W 079°58'0 0.0
2018-Feb-14 00:47N 09°26' W 079°58'0 0.0
2018-Feb-14 00:29N 09°26' W 079°58'0 0.0
2018-Feb-13 23:59N 09°26' W 079°58'0 0.0
2018-Feb-13 23:26N 09°26' W 079°58'0 0.0
2018-Feb-13 22:59N 09°26' W 079°58'0 0.0
2018-Feb-13 22:29N 09°26' W 079°58'0 0.0
2018-Feb-13 21:50N 09°26' W 079°58'0 0.0
2018-Feb-13 21:29N 09°26' W 079°58'0 0.0
2018-Feb-13 20:59N 09°26' W 079°58'0 0.0
2018-Feb-13 20:29N 09°26' W 079°58'0 0.0
2018-Feb-13 19:59N 09°26' W 079°58'0 0.0
2018-Feb-13 19:29N 09°26' W 079°58'0 0.0
2018-Feb-13 18:56N 09°26' W 079°58'0 0.0
2018-Feb-13 18:29N 09°26' W 079°58'0 0.0
2018-Feb-13 17:59N 09°26' W 079°58'0 0.0
2018-Feb-13 17:29N 09°26' W 079°58'0 0.0
2018-Feb-13 16:59N 09°26' W 079°58'0 0.0
2018-Feb-13 16:29N 09°26' W 079°58'0 0.0
2018-Feb-13 15:59N 09°26' W 079°58'0 0.0
2018-Feb-13 15:29N 09°26' W 079°58'0 0.0
2018-Feb-13 14:59N 09°26' W 079°58'0 0.0
2018-Feb-13 14:29N 09°26' W 079°58'0 0.0
2018-Feb-13 13:59N 09°26' W 079°58'0 0.0
2018-Feb-13 13:26N 09°26' W 079°58'0 0.0
2018-Feb-13 12:59N 09°26' W 079°58'0 0.0
2018-Feb-13 12:29N 09°26' W 079°58'0 0.0
2018-Feb-13 11:59N 09°26' W 079°58'0 0.0
2018-Feb-13 11:29N 09°26' W 079°58'0 0.0
2018-Feb-13 10:59N 09°26' W 079°58'0 0.0
2018-Feb-13 10:29N 09°26' W 079°58'0 0.0
2018-Feb-13 09:59N 09°26' W 079°58'0 0.0
2018-Feb-13 09:29N 09°26' W 079°58'0 0.0
2018-Feb-13 08:59N 09°26' W 079°58'0 0.0
2018-Feb-13 08:29N 09°26' W 079°58'0 0.0
2018-Feb-13 07:59N 09°26' W 079°58'0 0.0
2018-Feb-13 07:29N 09°26' W 079°58'0 0.0
2018-Feb-13 06:59N 09°26' W 079°58'0 0.0
2018-Feb-13 06:29N 09°26' W 079°58'0 0.0
2018-Feb-13 05:59N 09°26' W 079°58'0 0.0
2018-Feb-13 05:29N 09°26' W 079°58'0 0.0
2018-Feb-13 04:59N 09°26' W 079°58'0 0.0
2018-Feb-13 04:29N 09°26' W 079°58'0 0.1
2018-Feb-13 03:59N 09°26' W 079°57'0 0.0
2018-Feb-13 03:20N 09°26' W 079°57'0 0.0
2018-Feb-13 02:56N 09°26' W 079°57'0 0.0
2018-Feb-13 02:29N 09°26' W 079°58'0 0.0
2018-Feb-13 01:56N 09°26' W 079°58'0 0.0
2018-Feb-13 01:26N 09°26' W 079°57'0 0.0
2018-Feb-13 00:56N 09°26' W 079°57'0 0.0
2018-Feb-13 00:29N 09°26' W 079°57'0 0.0
2018-Feb-12 23:59N 09°26' W 079°57'0 0.0
2018-Feb-12 23:29N 09°26' W 079°57'0 0.1
2018-Feb-12 22:53N 09°26' W 079°58'0 0.0
2018-Feb-12 22:29N 09°26' W 079°58'0 0.0
2018-Feb-12 21:59N 09°26' W 079°58'0 0.1
2018-Feb-12 21:29N 09°26' W 079°58'0 0.1
2018-Feb-12 20:59N 09°26' W 079°58'0 0.0
2018-Feb-12 20:29N 09°26' W 079°57'0 0.0
2018-Feb-12 19:59N 09°26' W 079°57'0 0.0
2018-Feb-12 19:29N 09°26' W 079°57'0 0.0
2018-Feb-12 18:59N 09°26' W 079°57'0 0.0
2018-Feb-12 18:29N 09°26' W 079°57'0 0.0
2018-Feb-12 17:59N 09°26' W 079°57'0 0.0
2018-Feb-12 17:29N 09°26' W 079°57'0 0.0
2018-Feb-12 16:59N 09°26' W 079°57'0 0.0
2018-Feb-12 16:29N 09°26' W 079°57'0 0.2
2018-Feb-12 15:59N 09°26' W 079°57'1 3.1
2018-Feb-12 15:31N 09°27' W 079°56'5 9.5
2018-Feb-12 15:00N 09°31' W 079°54'1111.8
2018-Feb-12 14:06N 09°41' W 079°54'111.9
2018-Feb-12 13:59N 09°43' W 079°54'  
Track history (hours):
 
Tides and Currents Weather Stations Pressure Air Temp Water Temp Dewpoint Dewpoint Depression Visibility Wind Speed Wind Dir Waves Ship Positions

Ubc Santos

Last reported at 2018-Feb-15 02:11 UTC. Time now 2018-Feb-20 21:39 UTC.
Position N 09°11' W 079°52'.

Length 165 m; draft 10.6 m.

Type: Cargo ship. MMSI: 212125000.

Date/timePositionNaut miles runAvg speedWind from/ knotsBaromVisibWave heightAir tempDewpointWater temp
2018-Feb-15 02:11N 09°11' W 079°52'211.7
2018-Feb-15 02:00N 09°12' W 079°54'4 8.5
2018-Feb-15 01:30N 09°16' W 079°55'1 1.1
2018-Feb-15 01:00N 09°16' W 079°55'0 0.4
2018-Feb-15 00:30N 09°17' W 079°55'0 0.4
2018-Feb-15 00:00N 09°17' W 079°55'1 1.2
2018-Feb-14 23:30N 09°17' W 079°55'3 5.6
2018-Feb-14 23:00N 09°20' W 079°55'3 4.7
2018-Feb-14 22:28N 09°23' W 079°56'0 0.1
2018-Feb-14 21:58N 09°23' W 079°56'0 0.0
2018-Feb-14 21:28N 09°23' W 079°56'0 0.0
2018-Feb-14 20:58N 09°23' W 079°56'0 0.0
2018-Feb-14 20:25N 09°23' W 079°56'0 0.0
2018-Feb-14 19:58N 09°23' W 079°56'0 0.0
2018-Feb-14 19:28N 09°23' W 079°56'0 0.0
2018-Feb-14 18:58N 09°23' W 079°56'0 0.0
2018-Feb-14 18:28N 09°23' W 079°56'0 0.0
2018-Feb-14 17:58N 09°23' W 079°56'0 0.0
2018-Feb-14 17:28N 09°23' W 079°56'0 0.0
2018-Feb-14 16:58N 09°23' W 079°56'0 0.0
2018-Feb-14 16:28N 09°23' W 079°56'0 0.0
2018-Feb-14 15:58N 09°23' W 079°56'0 0.0
2018-Feb-14 15:28N 09°23' W 079°56'0 0.0
2018-Feb-14 14:58N 09°23' W 079°56'0 0.0
2018-Feb-14 14:28N 09°23' W 079°56'0 0.0
2018-Feb-14 13:58N 09°23' W 079°56'0 0.0
2018-Feb-14 13:28N 09°23' W 079°56'0 0.0
2018-Feb-14 12:58N 09°23' W 079°56'0 0.4
2018-Feb-14 12:28N 09°23' W 079°56'0 0.8
2018-Feb-14 12:00N 09°22' W 079°56'2 4.0
2018-Feb-14 11:30N 09°24' W 079°55'3 5.4
2018-Feb-14 11:00N 09°26' W 079°57'0 0.3
2018-Feb-14 10:26N 09°26' W 079°58'0 0.0
2018-Feb-14 09:59N 09°26' W 079°58'0 0.0
2018-Feb-14 09:29N 09°26' W 079°58'0 0.0
2018-Feb-14 08:56N 09°26' W 079°58'0 0.0
2018-Feb-14 08:26N 09°26' W 079°58'0 0.0
2018-Feb-14 07:56N 09°26' W 079°58'0 0.0
2018-Feb-14 07:29N 09°26' W 079°58'0 0.0
2018-Feb-14 06:59N 09°26' W 079°58'0 0.0
2018-Feb-14 06:29N 09°26' W 079°58'0 0.0
2018-Feb-14 05:59N 09°26' W 079°58'0 0.0
2018-Feb-14 05:26N 09°26' W 079°58'0 0.0
2018-Feb-14 04:56N 09°26' W 079°58'0 0.0
2018-Feb-14 04:29N 09°26' W 079°58'0 0.0
2018-Feb-14 03:59N 09°26' W 079°58'0 0.0
2018-Feb-14 03:29N 09°26' W 079°58'0 0.0
2018-Feb-14 02:59N 09°26' W 079°58'0 0.0
2018-Feb-14 02:26N 09°26' W 079°58'0 0.0
2018-Feb-14 01:59N 09°26' W 079°58'0 0.0
2018-Feb-14 01:20N 09°26' W 079°58'0 0.0
2018-Feb-14 00:47N 09°26' W 079°58'0 0.0
2018-Feb-14 00:29N 09°26' W 079°58'0 0.0
2018-Feb-13 23:59N 09°26' W 079°58'0 0.0
2018-Feb-13 23:26N 09°26' W 079°58'0 0.0
2018-Feb-13 22:59N 09°26' W 079°58'0 0.0
2018-Feb-13 22:29N 09°26' W 079°58'0 0.0
2018-Feb-13 21:50N 09°26' W 079°58'0 0.0
2018-Feb-13 21:29N 09°26' W 079°58'0 0.0
2018-Feb-13 20:59N 09°26' W 079°58'0 0.0
2018-Feb-13 20:29N 09°26' W 079°58'0 0.0
2018-Feb-13 19:59N 09°26' W 079°58'0 0.0
2018-Feb-13 19:29N 09°26' W 079°58'0 0.0
2018-Feb-13 18:56N 09°26' W 079°58'0 0.0
2018-Feb-13 18:29N 09°26' W 079°58'0 0.0
2018-Feb-13 17:59N 09°26' W 079°58'0 0.0
2018-Feb-13 17:29N 09°26' W 079°58'0 0.0
2018-Feb-13 16:59N 09°26' W 079°58'0 0.0
2018-Feb-13 16:29N 09°26' W 079°58'0 0.0
2018-Feb-13 15:59N 09°26' W 079°58'0 0.0
2018-Feb-13 15:29N 09°26' W 079°58'0 0.0
2018-Feb-13 14:59N 09°26' W 079°58'0 0.0
2018-Feb-13 14:29N 09°26' W 079°58'0 0.0
2018-Feb-13 13:59N 09°26' W 079°58'0 0.0
2018-Feb-13 13:26N 09°26' W 079°58'0 0.0
2018-Feb-13 12:59N 09°26' W 079°58'0 0.0
2018-Feb-13 12:29N 09°26' W 079°58'0 0.0
2018-Feb-13 11:59N 09°26' W 079°58'0 0.0
2018-Feb-13 11:29N 09°26' W 079°58'0 0.0
2018-Feb-13 10:59N 09°26' W 079°58'0 0.0
2018-Feb-13 10:29N 09°26' W 079°58'0 0.0
2018-Feb-13 09:59N 09°26' W 079°58'0 0.0
2018-Feb-13 09:29N 09°26' W 079°58'0 0.0
2018-Feb-13 08:59N 09°26' W 079°58'0 0.0
2018-Feb-13 08:29N 09°26' W 079°58'0 0.0
2018-Feb-13 07:59N 09°26' W 079°58'0 0.0
2018-Feb-13 07:29N 09°26' W 079°58'0 0.0
2018-Feb-13 06:59N 09°26' W 079°58'0 0.0
2018-Feb-13 06:29N 09°26' W 079°58'0 0.0
2018-Feb-13 05:59N 09°26' W 079°58'0 0.0
2018-Feb-13 05:29N 09°26' W 079°58'0 0.0
2018-Feb-13 04:59N 09°26' W 079°58'0 0.0
2018-Feb-13 04:29N 09°26' W 079°58'0 0.1
2018-Feb-13 03:59N 09°26' W 079°57'0 0.0
2018-Feb-13 03:20N 09°26' W 079°57'0 0.0
2018-Feb-13 02:56N 09°26' W 079°57'0 0.0
2018-Feb-13 02:29N 09°26' W 079°58'0 0.0
2018-Feb-13 01:56N 09°26' W 079°58'0 0.0
2018-Feb-13 01:26N 09°26' W 079°57'0 0.0
2018-Feb-13 00:56N 09°26' W 079°57'0 0.0
2018-Feb-13 00:29N 09°26' W 079°57'0 0.0
2018-Feb-12 23:59N 09°26' W 079°57'0 0.0
2018-Feb-12 23:29N 09°26' W 079°57'0 0.1
2018-Feb-12 22:53N 09°26' W 079°58'0 0.0
2018-Feb-12 22:29N 09°26' W 079°58'0 0.0
2018-Feb-12 21:59N 09°26' W 079°58'0 0.1
2018-Feb-12 21:29N 09°26' W 079°58'0 0.1
2018-Feb-12 20:59N 09°26' W 079°58'0 0.0
2018-Feb-12 20:29N 09°26' W 079°57'0 0.0
2018-Feb-12 19:59N 09°26' W 079°57'0 0.0
2018-Feb-12 19:29N 09°26' W 079°57'0 0.0
2018-Feb-12 18:59N 09°26' W 079°57'0 0.0
2018-Feb-12 18:29N 09°26' W 079°57'0 0.0
2018-Feb-12 17:59N 09°26' W 079°57'0 0.0
2018-Feb-12 17:29N 09°26' W 079°57'0 0.0
2018-Feb-12 16:59N 09°26' W 079°57'0 0.0
2018-Feb-12 16:29N 09°26' W 079°57'0 0.2
2018-Feb-12 15:59N 09°26' W 079°57'1 3.1
2018-Feb-12 15:31N 09°27' W 079°56'5 9.5
2018-Feb-12 15:00N 09°31' W 079°54'1111.8
2018-Feb-12 14:06N 09°41' W 079°54'111.9
2018-Feb-12 13:59N 09°43' W 079°54'  

Dump ship's entire track history